sensor_id;sensor_type;location;lat;lon;timestamp;pressure;altitude;pressure_sealevel;temperature;humidity
78855;BME280;68206;59.956;30.234;2023-08-31T00:00:45;100690.88;;;18.97;74.06
78855;BME280;68206;59.956;30.234;2023-08-31T00:03:14;100680.72;;;18.87;75.17
78855;BME280;68206;59.956;30.234;2023-08-31T00:05:43;100662.59;;;18.77;75.58
78855;BME280;68206;59.956;30.234;2023-08-31T00:08:13;100653.78;;;18.75;75.64
78855;BME280;68206;59.956;30.234;2023-08-31T00:10:42;100655.81;;;18.71;75.76
78855;BME280;68206;59.956;30.234;2023-08-31T00:13:10;100667.59;;;18.69;75.98
78855;BME280;68206;59.956;30.234;2023-08-31T00:15:39;100667.91;;;18.64;76.35
78855;BME280;68206;59.956;30.234;2023-08-31T00:18:08;100614.38;;;18.61;76.59
78855;BME280;68206;59.956;30.234;2023-08-31T00:20:37;100559.03;;;18.59;77.27
78855;BME280;68206;59.956;30.234;2023-08-31T00:23:05;100589.13;;;18.49;77.54
78855;BME280;68206;59.956;30.234;2023-08-31T00:25:35;100598.03;;;18.50;77.87
78855;BME280;68206;59.956;30.234;2023-08-31T00:28:04;100595.47;;;18.48;77.55
78855;BME280;68206;59.956;30.234;2023-08-31T00:30:33;100630.38;;;18.48;78.00
78855;BME280;68206;59.956;30.234;2023-08-31T00:33:01;100611.59;;;18.48;77.89
78855;BME280;68206;59.956;30.234;2023-08-31T00:35:29;100596.53;;;18.46;78.01
78855;BME280;68206;59.956;30.234;2023-08-31T00:37:57;100572.44;;;18.44;77.87
78855;BME280;68206;59.956;30.234;2023-08-31T00:40:28;100575.59;;;18.37;78.89
78855;BME280;68206;59.956;30.234;2023-08-31T00:42:59;100611.69;;;18.33;78.81
78855;BME280;68206;59.956;30.234;2023-08-31T00:45:28;100621.94;;;18.26;79.23
78855;BME280;68206;59.956;30.234;2023-08-31T00:47:56;100607.97;;;18.21;79.52
78855;BME280;68206;59.956;30.234;2023-08-31T00:50:26;100607.47;;;18.14;79.89
78855;BME280;68206;59.956;30.234;2023-08-31T00:52:54;100605.94;;;18.10;80.27
78855;BME280;68206;59.956;30.234;2023-08-31T00:55:22;100616.88;;;18.07;80.05
78855;BME280;68206;59.956;30.234;2023-08-31T00:57:51;100620.78;;;18.02;80.51
78855;BME280;68206;59.956;30.234;2023-08-31T01:00:22;100617.63;;;17.95;80.73
78855;BME280;68206;59.956;30.234;2023-08-31T01:02:59;100635.63;;;17.93;81.15
78855;BME280;68206;59.956;30.234;2023-08-31T01:05:37;100624.91;;;17.93;81.08
78855;BME280;68206;59.956;30.234;2023-08-31T01:08:18;100638.44;;;17.92;81.29
78855;BME280;68206;59.956;30.234;2023-08-31T01:10:58;100638.59;;;17.89;81.39
78855;BME280;68206;59.956;30.234;2023-08-31T01:13:30;100614.44;;;17.89;81.26
78855;BME280;68206;59.956;30.234;2023-08-31T01:16:07;100631.72;;;17.85;81.53
78855;BME280;68206;59.956;30.234;2023-08-31T01:18:39;100620.09;;;17.84;81.55
78855;BME280;68206;59.956;30.234;2023-08-31T01:21:12;100620.03;;;17.86;81.35
78855;BME280;68206;59.956;30.234;2023-08-31T01:23:50;100613.09;;;17.82;81.39
78855;BME280;68206;59.956;30.234;2023-08-31T01:26:19;100606.28;;;17.76;81.62
78855;BME280;68206;59.956;30.234;2023-08-31T01:28:50;100593.75;;;17.77;81.45
78855;BME280;68206;59.956;30.234;2023-08-31T01:31:19;100605.72;;;17.71;81.63
78855;BME280;68206;59.956;30.234;2023-08-31T01:33:48;100588.09;;;17.67;81.92
78855;BME280;68206;59.956;30.234;2023-08-31T01:36:37;100591.81;;;17.64;81.95
78855;BME280;68206;59.956;30.234;2023-08-31T01:39:13;100579.94;;;17.68;81.88
78855;BME280;68206;59.956;30.234;2023-08-31T01:41:50;100569.31;;;17.67;81.84
78855;BME280;68206;59.956;30.234;2023-08-31T01:44:19;100584.53;;;17.66;81.75
78855;BME280;68206;59.956;30.234;2023-08-31T01:46:52;100572.16;;;17.64;81.75
78855;BME280;68206;59.956;30.234;2023-08-31T01:49:23;100565.94;;;17.63;82.03
78855;BME280;68206;59.956;30.234;2023-08-31T01:51:52;100547.16;;;17.63;81.93
78855;BME280;68206;59.956;30.234;2023-08-31T01:54:22;100535.75;;;17.60;82.08
78855;BME280;68206;59.956;30.234;2023-08-31T01:56:50;100526.06;;;17.57;82.10
78855;BME280;68206;59.956;30.234;2023-08-31T01:59:19;100530.56;;;17.57;82.20
78855;BME280;68206;59.956;30.234;2023-08-31T02:01:49;100543.00;;;17.58;82.19
78855;BME280;68206;59.956;30.234;2023-08-31T02:04:17;100527.78;;;17.58;82.29
78855;BME280;68206;59.956;30.234;2023-08-31T02:06:45;100525.91;;;17.60;82.10
78855;BME280;68206;59.956;30.234;2023-08-31T02:09:14;100510.56;;;17.62;82.28
78855;BME280;68206;59.956;30.234;2023-08-31T02:11:44;100507.88;;;17.62;82.18
78855;BME280;68206;59.956;30.234;2023-08-31T02:14:14;100498.97;;;17.62;82.03
78855;BME280;68206;59.956;30.234;2023-08-31T02:16:42;100506.19;;;17.61;82.09
78855;BME280;68206;59.956;30.234;2023-08-31T02:19:11;100505.56;;;17.56;82.25
78855;BME280;68206;59.956;30.234;2023-08-31T02:21:40;100501.16;;;17.55;82.31
78855;BME280;68206;59.956;30.234;2023-08-31T02:24:08;100486.41;;;17.48;82.46
78855;BME280;68206;59.956;30.234;2023-08-31T02:26:40;100484.59;;;17.49;82.53
78855;BME280;68206;59.956;30.234;2023-08-31T02:29:10;100492.66;;;17.49;82.80
78855;BME280;68206;59.956;30.234;2023-08-31T02:31:38;100499.91;;;17.47;82.70
78855;BME280;68206;59.956;30.234;2023-08-31T02:34:08;100496.16;;;17.49;82.71
78855;BME280;68206;59.956;30.234;2023-08-31T02:36:36;100470.22;;;17.50;82.59
78855;BME280;68206;59.956;30.234;2023-08-31T02:39:04;100474.72;;;17.49;82.79
78855;BME280;68206;59.956;30.234;2023-08-31T02:41:36;100463.97;;;17.49;82.69
78855;BME280;68206;59.956;30.234;2023-08-31T02:44:04;100473.88;;;17.49;82.90
78855;BME280;68206;59.956;30.234;2023-08-31T02:46:34;100470.34;;;17.48;83.08
78855;BME280;68206;59.956;30.234;2023-08-31T02:49:02;100476.44;;;17.50;83.06
78855;BME280;68206;59.956;30.234;2023-08-31T02:51:30;100495.13;;;17.52;83.05
78855;BME280;68206;59.956;30.234;2023-08-31T02:53:59;100501.44;;;17.51;82.84
78855;BME280;68206;59.956;30.234;2023-08-31T02:56:27;100512.00;;;17.54;82.83
78855;BME280;68206;59.956;30.234;2023-08-31T02:58:56;100488.50;;;17.57;82.68
78855;BME280;68206;59.956;30.234;2023-08-31T03:01:24;100502.69;;;17.59;82.66
78855;BME280;68206;59.956;30.234;2023-08-31T03:03:54;100512.38;;;17.62;82.48
78855;BME280;68206;59.956;30.234;2023-08-31T03:06:23;100508.16;;;17.58;82.56
78855;BME280;68206;59.956;30.234;2023-08-31T03:08:51;100515.41;;;17.56;82.79
78855;BME280;68206;59.956;30.234;2023-08-31T03:11:19;100518.09;;;17.56;82.64
78855;BME280;68206;59.956;30.234;2023-08-31T03:13:48;100515.41;;;17.56;82.80
78855;BME280;68206;59.956;30.234;2023-08-31T03:16:16;100529.69;;;17.56;82.86
78855;BME280;68206;59.956;30.234;2023-08-31T03:18:44;100534.88;;;17.59;82.57
78855;BME280;68206;59.956;30.234;2023-08-31T03:21:15;100523.13;;;17.62;82.68
78855;BME280;68206;59.956;30.234;2023-08-31T03:23:44;100520.44;;;17.62;82.58
78855;BME280;68206;59.956;30.234;2023-08-31T03:26:12;100529.16;;;17.65;82.69
78855;BME280;68206;59.956;30.234;2023-08-31T03:28:40;100528.97;;;17.68;82.30
78855;BME280;68206;59.956;30.234;2023-08-31T03:31:09;100520.16;;;17.66;82.41
78855;BME280;68206;59.956;30.234;2023-08-31T03:33:37;100502.16;;;17.68;82.29
78855;BME280;68206;59.956;30.234;2023-08-31T03:36:05;100522.75;;;17.68;82.30
78855;BME280;68206;59.956;30.234;2023-08-31T03:38:35;100509.94;;;17.73;82.01
78855;BME280;68206;59.956;30.234;2023-08-31T03:41:05;100500.72;;;17.77;81.96
78855;BME280;68206;59.956;30.234;2023-08-31T03:43:34;100519.50;;;17.77;81.92
78855;BME280;68206;59.956;30.234;2023-08-31T03:46:02;100523.69;;;17.81;81.76
78855;BME280;68206;59.956;30.234;2023-08-31T03:48:30;100510.50;;;17.78;81.77
78855;BME280;68206;59.956;30.234;2023-08-31T03:50:58;100497.94;;;17.79;81.91
78855;BME280;68206;59.956;30.234;2023-08-31T03:53:27;100497.38;;;17.73;82.08
78855;BME280;68206;59.956;30.234;2023-08-31T03:55:59;100514.91;;;17.79;81.78
78855;BME280;68206;59.956;30.234;2023-08-31T03:58:28;100510.19;;;17.83;81.60
78855;BME280;68206;59.956;30.234;2023-08-31T04:00:56;100527.63;;;17.90;81.16
78855;BME280;68206;59.956;30.234;2023-08-31T04:03:25;100530.97;;;17.93;81.08
78855;BME280;68206;59.956;30.234;2023-08-31T04:05:54;100534.66;;;17.92;81.08
78855;BME280;68206;59.956;30.234;2023-08-31T04:08:22;100523.72;;;17.95;80.97
78855;BME280;68206;59.956;30.234;2023-08-31T04:10:51;100529.75;;;17.99;80.69
78855;BME280;68206;59.956;30.234;2023-08-31T04:13:22;100534.25;;;17.98;80.56
78855;BME280;68206;59.956;30.234;2023-08-31T04:15:51;100528.91;;;17.98;80.67
78855;BME280;68206;59.956;30.234;2023-08-31T04:18:20;100529.16;;;17.94;80.78
78855;BME280;68206;59.956;30.234;2023-08-31T04:20:49;100525.63;;;17.93;80.81
78855;BME280;68206;59.956;30.234;2023-08-31T04:23:19;100537.13;;;17.95;80.67
78855;BME280;68206;59.956;30.234;2023-08-31T04:25:47;100530.97;;;17.93;80.94
78855;BME280;68206;59.956;30.234;2023-08-31T04:28:18;100528.91;;;17.98;80.68
78855;BME280;68206;59.956;30.234;2023-08-31T04:30:48;100533.66;;;18.07;80.47
78855;BME280;68206;59.956;30.234;2023-08-31T04:33:17;100535.97;;;18.13;80.22
78855;BME280;68206;59.956;30.234;2023-08-31T04:35:45;100536.34;;;18.22;80.02
78855;BME280;68206;59.956;30.234;2023-08-31T04:38:14;100537.84;;;18.26;80.25
78855;BME280;68206;59.956;30.234;2023-08-31T04:40:42;100539.50;;;18.28;79.62
78855;BME280;68206;59.956;30.234;2023-08-31T04:43:11;100542.28;;;18.27;79.71
78855;BME280;68206;59.956;30.234;2023-08-31T04:45:40;100560.97;;;18.28;79.55
78855;BME280;68206;59.956;30.234;2023-08-31T04:48:09;100545.91;;;18.26;79.46
78855;BME280;68206;59.956;30.234;2023-08-31T04:50:38;100547.56;;;18.28;79.18
78855;BME280;68206;59.956;30.234;2023-08-31T04:53:05;100555.22;;;18.34;79.41
78855;BME280;68206;59.956;30.234;2023-08-31T04:55:33;100560.44;;;18.50;79.10
78855;BME280;68206;59.956;30.234;2023-08-31T04:58:02;100552.84;;;18.71;78.61
78855;BME280;68206;59.956;30.234;2023-08-31T05:00:31;100546.84;;;20.35;74.68
78855;BME280;68206;59.956;30.234;2023-08-31T05:02:59;100549.34;;;21.44;71.01
78855;BME280;68206;59.956;30.234;2023-08-31T05:05:29;100553.38;;;21.85;67.25
78855;BME280;68206;59.956;30.234;2023-08-31T05:08:00;100564.41;;;22.71;64.46
78855;BME280;68206;59.956;30.234;2023-08-31T05:10:28;100553.69;;;22.80;63.48
78855;BME280;68206;59.956;30.234;2023-08-31T05:12:56;100566.09;;;23.26;61.86
78855;BME280;68206;59.956;30.234;2023-08-31T05:15:24;100556.81;;;23.08;61.71
78855;BME280;68206;59.956;30.234;2023-08-31T05:17:54;100560.13;;;22.57;62.62
78855;BME280;68206;59.956;30.234;2023-08-31T05:20:23;100550.81;;;22.39;63.72
78855;BME280;68206;59.956;30.234;2023-08-31T05:22:52;100561.88;;;22.13;64.11
78855;BME280;68206;59.956;30.234;2023-08-31T05:25:21;100568.44;;;22.99;62.74
78855;BME280;68206;59.956;30.234;2023-08-31T05:27:49;100560.50;;;23.39;61.41
78855;BME280;68206;59.956;30.234;2023-08-31T05:30:17;100567.44;;;23.94;59.53
78855;BME280;68206;59.956;30.234;2023-08-31T05:32:45;100561.13;;;24.44;57.69
78855;BME280;68206;59.956;30.234;2023-08-31T05:35:14;100559.75;;;24.60;57.22
78855;BME280;68206;59.956;30.234;2023-08-31T05:37:42;100564.50;;;24.06;57.91
78855;BME280;68206;59.956;30.234;2023-08-31T05:40:12;100571.59;;;23.36;59.50
78855;BME280;68206;59.956;30.234;2023-08-31T05:42:41;100570.38;;;22.97;61.16
78855;BME280;68206;59.956;30.234;2023-08-31T05:45:09;100554.75;;;22.46;62.32
78855;BME280;68206;59.956;30.234;2023-08-31T05:47:38;100566.41;;;22.24;63.48
78855;BME280;68206;59.956;30.234;2023-08-31T05:50:07;100556.22;;;22.05;64.03
78855;BME280;68206;59.956;30.234;2023-08-31T05:52:35;100563.84;;;22.00;64.48
78855;BME280;68206;59.956;30.234;2023-08-31T05:55:04;100564.09;;;22.08;64.50
78855;BME280;68206;59.956;30.234;2023-08-31T05:57:35;100589.50;;;22.06;64.64
78855;BME280;68206;59.956;30.234;2023-08-31T06:00:05;100574.91;;;22.20;64.07
78855;BME280;68206;59.956;30.234;2023-08-31T06:02:38;100586.16;;;22.91;62.90
78855;BME280;68206;59.956;30.234;2023-08-31T06:05:07;100571.56;;;24.19;59.57
78855;BME280;68206;59.956;30.234;2023-08-31T06:07:36;100578.72;;;25.57;55.86
78855;BME280;68206;59.956;30.234;2023-08-31T06:10:05;100574.28;;;26.22;53.36
78855;BME280;68206;59.956;30.234;2023-08-31T06:12:34;100577.66;;;26.98;50.71
78855;BME280;68206;59.956;30.234;2023-08-31T06:15:04;100589.19;;;27.89;48.79
78855;BME280;68206;59.956;30.234;2023-08-31T06:17:32;100567.91;;;28.44;46.76
78855;BME280;68206;59.956;30.234;2023-08-31T06:20:02;100583.56;;;29.34;45.23
78855;BME280;68206;59.956;30.234;2023-08-31T06:22:32;100575.44;;;30.30;42.71
78855;BME280;68206;59.956;30.234;2023-08-31T06:25:01;100573.69;;;30.53;41.05
78855;BME280;68206;59.956;30.234;2023-08-31T06:27:29;100580.03;;;30.54;40.70
78855;BME280;68206;59.956;30.234;2023-08-31T06:29:59;100571.59;;;30.55;40.86
78855;BME280;68206;59.956;30.234;2023-08-31T06:32:30;100566.97;;;30.09;41.65
78855;BME280;68206;59.956;30.234;2023-08-31T06:34:58;100587.50;;;29.40;42.75
78855;BME280;68206;59.956;30.234;2023-08-31T06:37:27;100571.84;;;28.49;44.76
78855;BME280;68206;59.956;30.234;2023-08-31T06:39:55;100573.50;;;28.42;45.11
78855;BME280;68206;59.956;30.234;2023-08-31T06:42:23;100577.94;;;28.35;45.22
78855;BME280;68206;59.956;30.234;2023-08-31T06:44:53;100563.81;;;27.88;46.49
78855;BME280;68206;59.956;30.234;2023-08-31T06:47:25;100576.69;;;27.78;47.11
78855;BME280;68206;59.956;30.234;2023-08-31T06:49:53;100571.50;;;27.93;46.66
78855;BME280;68206;59.956;30.234;2023-08-31T06:52:22;100569.56;;;27.24;48.39
78855;BME280;68206;59.956;30.234;2023-08-31T06:54:58;100566.44;;;27.37;48.01
78855;BME280;68206;59.956;30.234;2023-08-31T06:57:27;100558.75;;;26.97;48.92
78855;BME280;68206;59.956;30.234;2023-08-31T06:59:55;100560.56;;;26.78;49.37
78855;BME280;68206;59.956;30.234;2023-08-31T07:02:26;100561.56;;;26.77;49.65
78855;BME280;68206;59.956;30.234;2023-08-31T07:04:55;100563.81;;;27.88;47.65
78855;BME280;68206;59.956;30.234;2023-08-31T07:07:23;100555.66;;;28.48;46.35
78855;BME280;68206;59.956;30.234;2023-08-31T07:09:52;100554.47;;;29.01;44.57
78855;BME280;68206;59.956;30.234;2023-08-31T07:12:21;100554.47;;;29.09;44.05
78855;BME280;68206;59.956;30.234;2023-08-31T07:14:50;100543.72;;;29.23;43.89
78855;BME280;68206;59.956;30.234;2023-08-31T07:17:18;100550.41;;;29.86;42.60
78855;BME280;68206;59.956;30.234;2023-08-31T07:19:49;100549.88;;;29.25;43.11
78855;BME280;68206;59.956;30.234;2023-08-31T07:22:17;100531.94;;;29.15;43.81
78855;BME280;68206;59.956;30.234;2023-08-31T07:24:46;100541.78;;;28.75;44.47
78855;BME280;68206;59.956;30.234;2023-08-31T07:27:14;100540.78;;;28.42;45.05
78855;BME280;68206;59.956;30.234;2023-08-31T07:29:42;100553.72;;;28.74;44.85
78855;BME280;68206;59.956;30.234;2023-08-31T07:32:10;100544.50;;;28.33;45.34
78855;BME280;68206;59.956;30.234;2023-08-31T07:34:39;100552.00;;;27.54;46.49
78855;BME280;68206;59.956;30.234;2023-08-31T07:37:08;100555.09;;;27.06;48.57
78855;BME280;68206;59.956;30.234;2023-08-31T07:39:37;100537.53;;;28.13;46.86
78855;BME280;68206;59.956;30.234;2023-08-31T07:42:05;100536.47;;;27.98;46.70
78855;BME280;68206;59.956;30.234;2023-08-31T07:44:34;100535.63;;;28.31;45.77
78855;BME280;68206;59.956;30.234;2023-08-31T07:47:02;100537.75;;;29.04;44.45
78855;BME280;68206;59.956;30.234;2023-08-31T07:49:30;100531.09;;;29.31;43.48
78855;BME280;68206;59.956;30.234;2023-08-31T07:51:59;100523.22;;;29.84;42.20
78855;BME280;68206;59.956;30.234;2023-08-31T07:54:28;100541.03;;;29.64;42.09
78855;BME280;68206;59.956;30.234;2023-08-31T07:56:57;100522.06;;;28.56;44.81
78855;BME280;68206;59.956;30.234;2023-08-31T07:59:26;100516.31;;;28.25;45.72
78855;BME280;68206;59.956;30.234;2023-08-31T08:01:54;100509.13;;;28.58;44.42
78855;BME280;68206;59.956;30.234;2023-08-31T08:04:22;100500.09;;;28.65;44.58
78855;BME280;68206;59.956;30.234;2023-08-31T08:06:53;100517.53;;;28.30;44.95
78855;BME280;68206;59.956;30.234;2023-08-31T08:09:21;100533.31;;;27.85;45.86
78855;BME280;68206;59.956;30.234;2023-08-31T08:11:51;100509.31;;;26.74;48.05
78855;BME280;68206;59.956;30.234;2023-08-31T08:14:19;100510.13;;;26.39;49.00
78855;BME280;68206;59.956;30.234;2023-08-31T08:16:47;100509.88;;;26.32;49.77
78855;BME280;68206;59.956;30.234;2023-08-31T08:19:21;100508.91;;;26.14;50.43
78855;BME280;68206;59.956;30.234;2023-08-31T08:21:49;100503.75;;;25.84;51.19
78855;BME280;68206;59.956;30.234;2023-08-31T08:24:18;100504.81;;;26.10;50.79
78855;BME280;68206;59.956;30.234;2023-08-31T08:26:46;100492.47;;;26.43;49.79
78855;BME280;68206;59.956;30.234;2023-08-31T08:29:16;100495.00;;;26.27;50.27
78855;BME280;68206;59.956;30.234;2023-08-31T08:31:44;100494.72;;;26.20;50.68
78855;BME280;68206;59.956;30.234;2023-08-31T08:34:12;100506.28;;;26.32;49.75
78855;BME280;68206;59.956;30.234;2023-08-31T08:36:40;100504.16;;;26.26;50.57
78855;BME280;68206;59.956;30.234;2023-08-31T08:39:10;100495.31;;;26.24;50.71
78855;BME280;68206;59.956;30.234;2023-08-31T08:41:39;100480.91;;;26.41;50.01
78855;BME280;68206;59.956;30.234;2023-08-31T08:44:07;100477.88;;;26.44;50.23
78855;BME280;68206;59.956;30.234;2023-08-31T08:46:38;100493.97;;;26.55;49.97
78855;BME280;68206;59.956;30.234;2023-08-31T08:49:06;100492.09;;;26.38;50.39
78855;BME280;68206;59.956;30.234;2023-08-31T08:51:35;100485.13;;;26.26;50.65
78855;BME280;68206;59.956;30.234;2023-08-31T08:54:04;100490.16;;;26.21;50.85
78855;BME280;68206;59.956;30.234;2023-08-31T08:56:32;100463.53;;;26.24;51.03
78855;BME280;68206;59.956;30.234;2023-08-31T08:59:01;100475.69;;;26.20;50.99
78855;BME280;68206;59.956;30.234;2023-08-31T09:01:30;100468.47;;;26.11;51.86
78855;BME280;68206;59.956;30.234;2023-08-31T09:03:59;100477.69;;;26.18;51.85
78855;BME280;68206;59.956;30.234;2023-08-31T09:06:28;100464.88;;;26.10;51.81
78855;BME280;68206;59.956;30.234;2023-08-31T09:08:57;100470.88;;;26.14;51.92
78855;BME280;68206;59.956;30.234;2023-08-31T09:11:25;100475.78;;;26.01;52.27
78855;BME280;68206;59.956;30.234;2023-08-31T09:13:53;100500.56;;;25.98;52.56
78855;BME280;68206;59.956;30.234;2023-08-31T09:16:25;100481.63;;;25.79;53.12
78855;BME280;68206;59.956;30.234;2023-08-31T09:18:56;100456.16;;;25.80;53.34
78855;BME280;68206;59.956;30.234;2023-08-31T09:21:36;100456.09;;;25.89;53.33
78855;BME280;68206;59.956;30.234;2023-08-31T09:24:05;100460.09;;;25.95;53.27
78855;BME280;68206;59.956;30.234;2023-08-31T09:26:39;100457.88;;;26.08;53.05
78855;BME280;68206;59.956;30.234;2023-08-31T09:29:07;100464.06;;;26.00;53.57
78855;BME280;68206;59.956;30.234;2023-08-31T09:31:36;100473.22;;;25.99;53.75
78855;BME280;68206;59.956;30.234;2023-08-31T09:34:05;100455.63;;;26.03;53.57
78855;BME280;68206;59.956;30.234;2023-08-31T09:36:33;100465.97;;;26.18;53.38
78855;BME280;68206;59.956;30.234;2023-08-31T09:39:04;100460.09;;;26.22;53.48
78855;BME280;68206;59.956;30.234;2023-08-31T09:41:33;100479.00;;;26.24;53.57
78855;BME280;68206;59.956;30.234;2023-08-31T09:44:14;100447.53;;;26.11;53.31
78855;BME280;68206;59.956;30.234;2023-08-31T09:46:44;100464.69;;;26.22;53.45
78855;BME280;68206;59.956;30.234;2023-08-31T09:49:14;100478.75;;;26.07;53.41
78855;BME280;68206;59.956;30.234;2023-08-31T09:51:45;100462.53;;;25.98;53.62
78855;BME280;68206;59.956;30.234;2023-08-31T09:54:17;100448.31;;;26.04;53.58
78855;BME280;68206;59.956;30.234;2023-08-31T09:56:47;100455.41;;;26.15;53.46
78855;BME280;68206;59.956;30.234;2023-08-31T09:59:16;100467.00;;;26.17;53.85
78855;BME280;68206;59.956;30.234;2023-08-31T10:01:45;100442.97;;;26.12;52.83
78855;BME280;68206;59.956;30.234;2023-08-31T10:04:15;100430.81;;;26.16;52.90
78855;BME280;68206;59.956;30.234;2023-08-31T10:06:44;100431.91;;;26.23;52.61
78855;BME280;68206;59.956;30.234;2023-08-31T10:09:15;100427.75;;;26.29;52.18
78855;BME280;68206;59.956;30.234;2023-08-31T10:11:44;100416.88;;;26.19;52.40
78855;BME280;68206;59.956;30.234;2023-08-31T10:14:13;100436.19;;;26.26;52.36
78855;BME280;68206;59.956;30.234;2023-08-31T10:16:44;100435.78;;;26.21;52.29
78855;BME280;68206;59.956;30.234;2023-08-31T10:19:12;100436.63;;;26.21;52.43
78855;BME280;68206;59.956;30.234;2023-08-31T10:21:41;100436.63;;;26.21;52.59
78855;BME280;68206;59.956;30.234;2023-08-31T10:24:11;100425.03;;;26.19;52.63
78855;BME280;68206;59.956;30.234;2023-08-31T10:26:41;100428.63;;;26.20;52.82
78855;BME280;68206;59.956;30.234;2023-08-31T10:29:25;100430.34;;;26.21;51.76
78855;BME280;68206;59.956;30.234;2023-08-31T10:32:00;100424.91;;;26.21;51.86
78855;BME280;68206;59.956;30.234;2023-08-31T10:34:36;100407.00;;;26.28;51.75
78855;BME280;68206;59.956;30.234;2023-08-31T10:37:19;100425.47;;;26.24;51.67
78855;BME280;68206;59.956;30.234;2023-08-31T10:39:49;100412.16;;;26.21;51.68
78855;BME280;68206;59.956;30.234;2023-08-31T10:42:43;100414.03;;;26.21;51.90
78855;BME280;68206;59.956;30.234;2023-08-31T10:45:12;100417.75;;;26.20;51.84
78855;BME280;68206;59.956;30.234;2023-08-31T10:47:41;100427.75;;;26.19;51.78
78855;BME280;68206;59.956;30.234;2023-08-31T10:50:16;100428.94;;;26.17;52.00
78855;BME280;68206;59.956;30.234;2023-08-31T10:52:45;100414.44;;;26.26;51.92
78855;BME280;68206;59.956;30.234;2023-08-31T10:55:13;100418.03;;;26.26;51.92
78855;BME280;68206;59.956;30.234;2023-08-31T10:57:43;100423.75;;;26.23;51.94
78855;BME280;68206;59.956;30.234;2023-08-31T11:00:13;100427.47;;;26.22;51.35
78855;BME280;68206;59.956;30.234;2023-08-31T11:02:44;100441.81;;;26.15;50.77
78855;BME280;68206;59.956;30.234;2023-08-31T11:05:15;100415.97;;;26.10;50.75
78855;BME280;68206;59.956;30.234;2023-08-31T11:07:46;100423.09;;;26.11;51.31
78855;BME280;68206;59.956;30.234;2023-08-31T11:10:16;100425.19;;;26.18;50.87
78855;BME280;68206;59.956;30.234;2023-08-31T11:12:49;100418.47;;;26.22;51.11
78855;BME280;68206;59.956;30.234;2023-08-31T11:15:19;100427.34;;;26.24;51.46
78855;BME280;68206;59.956;30.234;2023-08-31T11:17:49;100422.91;;;26.23;51.73
78855;BME280;68206;59.956;30.234;2023-08-31T11:20:19;100422.59;;;26.26;51.64
78855;BME280;68206;59.956;30.234;2023-08-31T11:22:49;100413.44;;;26.27;51.12
78855;BME280;68206;59.956;30.234;2023-08-31T11:25:20;100415.00;;;26.29;51.08
78855;BME280;68206;59.956;30.234;2023-08-31T11:27:56;100415.69;;;26.31;50.58
78855;BME280;68206;59.956;30.234;2023-08-31T11:30:25;100419.28;;;26.32;50.99
78855;BME280;68206;59.956;30.234;2023-08-31T11:32:54;100416.41;;;26.33;51.15
78855;BME280;68206;59.956;30.234;2023-08-31T11:35:23;100404.19;;;26.37;50.78
78855;BME280;68206;59.956;30.234;2023-08-31T11:37:55;100406.78;;;26.39;50.18
78855;BME280;68206;59.956;30.234;2023-08-31T11:40:26;100414.16;;;26.46;50.31
78855;BME280;68206;59.956;30.234;2023-08-31T11:42:56;100404.69;;;26.50;48.94
78855;BME280;68206;59.956;30.234;2023-08-31T11:45:24;100404.38;;;26.54;48.83
78855;BME280;68206;59.956;30.234;2023-08-31T11:47:53;100416.97;;;26.55;48.76
78855;BME280;68206;59.956;30.234;2023-08-31T11:50:23;100419.00;;;26.53;48.58
78855;BME280;68206;59.956;30.234;2023-08-31T11:52:52;100403.69;;;26.52;48.64
78855;BME280;68206;59.956;30.234;2023-08-31T11:55:21;100400.19;;;26.59;48.45
78855;BME280;68206;59.956;30.234;2023-08-31T11:57:50;100408.19;;;26.61;48.58
78855;BME280;68206;59.956;30.234;2023-08-31T12:00:21;100403.19;;;26.56;47.99
78855;BME280;68206;59.956;30.234;2023-08-31T12:02:59;100401.66;;;26.54;47.97
78855;BME280;68206;59.956;30.234;2023-08-31T12:05:28;100401.81;;;26.52;48.21
78855;BME280;68206;59.956;30.234;2023-08-31T12:07:58;100399.81;;;26.54;47.86
78855;BME280;68206;59.956;30.234;2023-08-31T12:10:27;100384.88;;;26.58;48.01
78855;BME280;68206;59.956;30.234;2023-08-31T12:13:07;100383.94;;;26.67;47.58
78855;BME280;68206;59.956;30.234;2023-08-31T12:15:38;100386.66;;;26.67;47.19
78855;BME280;68206;59.956;30.234;2023-08-31T12:18:07;100388.19;;;26.70;47.44
78855;BME280;68206;59.956;30.234;2023-08-31T12:20:43;100392.94;;;26.68;47.09
78855;BME280;68206;59.956;30.234;2023-08-31T12:23:11;100374.06;;;26.66;46.90
78855;BME280;68206;59.956;30.234;2023-08-31T12:25:46;100381.03;;;26.69;46.47
78855;BME280;68206;59.956;30.234;2023-08-31T12:28:16;100388.19;;;26.70;46.72
78855;BME280;68206;59.956;30.234;2023-08-31T12:30:47;100382.06;;;26.85;46.89
78855;BME280;68206;59.956;30.234;2023-08-31T12:33:17;100390.38;;;27.02;46.05
78855;BME280;68206;59.956;30.234;2023-08-31T12:35:46;100386.16;;;27.07;45.95
78855;BME280;68206;59.956;30.234;2023-08-31T12:38:15;100378.47;;;27.03;45.93
78855;BME280;68206;59.956;30.234;2023-08-31T12:40:43;100399.25;;;27.04;46.22
78855;BME280;68206;59.956;30.234;2023-08-31T12:43:11;100393.53;;;27.15;46.22
78855;BME280;68206;59.956;30.234;2023-08-31T12:45:40;100375.56;;;27.30;45.35
78855;BME280;68206;59.956;30.234;2023-08-31T12:48:10;100380.75;;;27.41;45.86
78855;BME280;68206;59.956;30.234;2023-08-31T12:50:38;100392.72;;;27.48;45.21
78855;BME280;68206;59.956;30.234;2023-08-31T12:53:06;100385.38;;;27.49;45.27